Quick Links (Output Below):   Max & Min Temps   /   Climate Reports   /   Zone Forecasts
River Forecasts   /   Forestry Forecasts   /   Aviation Forecasts   /   Radars   /   Features

Terminal Aerodrome Forecast (Monticello)

Pick a Site:
Arkadelphia | El Dorado | Fayetteville | Fort Smith | Harrison | Highfill | Hot Springs | Jonesboro
Little Rock | Monticello | Mountain Home | Pine Bluff | Texarkana
 Forecast 

KLLQ 291120Z 2912/3012 VRB04KT P6SM SCT250
     FM291700 07006KT P6SM SCT040
     FM300000 VRB03KT P6SM SCT250=


 Latest METARs (Observations) 
How to Decode METARs
14Z KLLQ 291353Z AUTO 05007KT 020V090 10SM SCT070 23/19 A3013 RMK AO2
         SLP199 T02330189
         
13Z KLLQ 291253Z AUTO VRB05KT 10SM BKN070 22/19 A3012 RMK AO2 SLP194
         T02220189
         
12Z KLLQ 291153Z AUTO 33003KT 10SM CLR 21/18 A3009 RMK AO2 SLP186
         60000 T02060183 10206 20189 53014
         
11Z KLLQ 291053Z AUTO 31003KT 10SM CLR 21/18 A3007 RMK AO2 SLP179
         T02060178
         
10Z KLLQ 290953Z AUTO 31003KT 10SM FEW065 19/18 A3006 RMK AO2 RAB16E30
         SLP174 P0000 T01940183
         
09Z KLLQ 290853Z AUTO 00000KT 10SM CLR 19/18 A3005 RMK AO2 SLP172
         T01940178 55002
         
08Z KLLQ 290753Z AUTO 29003KT 10SM CLR 20/18 A3004 RMK AO2 SLP170
         T02000178
         
07Z KLLQ 290653Z AUTO 00000KT 10SM CLR 20/18 A3005 RMK AO2 SLP172
         T02000183
         
06Z KLLQ 290553Z AUTO 00000KT 10SM CLR 21/19 A3006 RMK AO2 SLP174
         T02060189 10283 20200 403170200 58004
         
05Z KLLQ 290453Z AUTO 00000KT 10SM CLR 21/19 A3006 RMK AO2 SLP176
         T02110189
         
***** Today's Observations (Above) *****


Back to Main Page
http://www.srh.noaa.gov/lzk/qfcst.php

USA.gov is the U.S. government's official web portal to all federal, state and local government web resources and services.